sensor_id;sensor_type;location;lat;lon;timestamp;temperature;humidity
41262;DHT22;29629;52.532;13.352;2022-12-18T00:02:09;-4.20;99.90
41262;DHT22;29629;52.532;13.352;2022-12-18T00:04:35;-4.00;99.90
41262;DHT22;29629;52.532;13.352;2022-12-18T00:07:02;-3.80;99.90
41262;DHT22;29629;52.532;13.352;2022-12-18T00:09:29;-3.70;99.90
41262;DHT22;29629;52.532;13.352;2022-12-18T00:11:56;-3.80;99.90
41262;DHT22;29629;52.532;13.352;2022-12-18T00:14:25;-3.70;99.90
41262;DHT22;29629;52.532;13.352;2022-12-18T00:16:52;-3.70;99.90
41262;DHT22;29629;52.532;13.352;2022-12-18T00:19:19;-3.70;99.90
41262;DHT22;29629;52.532;13.352;2022-12-18T00:24:18;-3.80;99.90
41262;DHT22;29629;52.532;13.352;2022-12-18T00:26:45;-3.90;99.90
41262;DHT22;29629;52.532;13.352;2022-12-18T00:29:13;-4.00;99.90
41262;DHT22;29629;52.532;13.352;2022-12-18T00:31:42;-4.40;99.90
41262;DHT22;29629;52.532;13.352;2022-12-18T00:34:11;-4.50;99.90
41262;DHT22;29629;52.532;13.352;2022-12-18T00:36:39;-4.50;99.90
41262;DHT22;29629;52.532;13.352;2022-12-18T00:39:06;-4.60;99.90
41262;DHT22;29629;52.532;13.352;2022-12-18T00:41:33;-4.60;99.90
41262;DHT22;29629;52.532;13.352;2022-12-18T00:44:18;-4.50;99.90
41262;DHT22;29629;52.532;13.352;2022-12-18T00:46:47;-4.70;99.90
41262;DHT22;29629;52.532;13.352;2022-12-18T00:49:15;-4.70;99.90
41262;DHT22;29629;52.532;13.352;2022-12-18T00:51:42;-4.70;99.90
41262;DHT22;29629;52.532;13.352;2022-12-18T00:54:09;-4.60;99.90
41262;DHT22;29629;52.532;13.352;2022-12-18T00:56:37;-4.50;99.90
41262;DHT22;29629;52.532;13.352;2022-12-18T00:59:04;-4.30;99.90
41262;DHT22;29629;52.532;13.352;2022-12-18T01:01:31;-4.10;99.90
41262;DHT22;29629;52.532;13.352;2022-12-18T01:04:01;-4.20;99.90
41262;DHT22;29629;52.532;13.352;2022-12-18T01:06:29;-4.20;99.90
41262;DHT22;29629;52.532;13.352;2022-12-18T01:08:57;-4.30;99.90
41262;DHT22;29629;52.532;13.352;2022-12-18T01:11:24;-4.30;99.90
41262;DHT22;29629;52.532;13.352;2022-12-18T01:13:52;-4.40;99.90
41262;DHT22;29629;52.532;13.352;2022-12-18T01:16:19;-4.40;99.90
41262;DHT22;29629;52.532;13.352;2022-12-18T01:18:47;-4.40;99.90
41262;DHT22;29629;52.532;13.352;2022-12-18T01:21:16;-4.70;99.90
41262;DHT22;29629;52.532;13.352;2022-12-18T01:23:43;-4.50;99.90
41262;DHT22;29629;52.532;13.352;2022-12-18T01:26:12;-4.40;99.90
41262;DHT22;29629;52.532;13.352;2022-12-18T01:28:39;-4.20;99.90
41262;DHT22;29629;52.532;13.352;2022-12-18T01:31:15;-4.10;99.90
41262;DHT22;29629;52.532;13.352;2022-12-18T01:33:42;-4.30;99.90
41262;DHT22;29629;52.532;13.352;2022-12-18T01:36:16;-4.40;99.90
41262;DHT22;29629;52.532;13.352;2022-12-18T01:38:44;-4.60;99.90
41262;DHT22;29629;52.532;13.352;2022-12-18T01:41:11;-4.60;99.90
41262;DHT22;29629;52.532;13.352;2022-12-18T01:43:46;-4.80;99.90
41262;DHT22;29629;52.532;13.352;2022-12-18T01:46:14;-4.70;99.90
41262;DHT22;29629;52.532;13.352;2022-12-18T01:48:42;-4.50;99.90
41262;DHT22;29629;52.532;13.352;2022-12-18T01:51:11;-4.30;99.90
41262;DHT22;29629;52.532;13.352;2022-12-18T01:53:42;-4.20;99.90
41262;DHT22;29629;52.532;13.352;2022-12-18T01:56:13;-4.20;99.90
41262;DHT22;29629;52.532;13.352;2022-12-18T01:58:46;-4.40;99.90
41262;DHT22;29629;52.532;13.352;2022-12-18T02:01:15;-4.30;99.90
41262;DHT22;29629;52.532;13.352;2022-12-18T02:03:43;-4.30;99.90
41262;DHT22;29629;52.532;13.352;2022-12-18T02:06:14;-4.20;99.90
41262;DHT22;29629;52.532;13.352;2022-12-18T02:08:51;-4.30;99.90
41262;DHT22;29629;52.532;13.352;2022-12-18T02:11:32;-4.30;99.90
41262;DHT22;29629;52.532;13.352;2022-12-18T02:14:15;-4.20;99.90
41262;DHT22;29629;52.532;13.352;2022-12-18T02:16:49;-4.30;99.90
41262;DHT22;29629;52.532;13.352;2022-12-18T02:19:37;-4.40;99.90
41262;DHT22;29629;52.532;13.352;2022-12-18T02:22:17;-4.60;99.90
41262;DHT22;29629;52.532;13.352;2022-12-18T02:24:58;-4.80;99.90
41262;DHT22;29629;52.532;13.352;2022-12-18T02:27:28;-5.00;99.90
41262;DHT22;29629;52.532;13.352;2022-12-18T02:29:59;-5.00;99.90
41262;DHT22;29629;52.532;13.352;2022-12-18T02:32:30;-5.10;99.90
41262;DHT22;29629;52.532;13.352;2022-12-18T02:34:59;-4.90;99.90
41262;DHT22;29629;52.532;13.352;2022-12-18T02:37:28;-5.00;99.90
41262;DHT22;29629;52.532;13.352;2022-12-18T02:39:57;-5.00;99.90
41262;DHT22;29629;52.532;13.352;2022-12-18T02:42:28;-4.70;99.90
41262;DHT22;29629;52.532;13.352;2022-12-18T02:44:55;-4.60;99.90
41262;DHT22;29629;52.532;13.352;2022-12-18T02:47:24;-4.70;99.90
41262;DHT22;29629;52.532;13.352;2022-12-18T02:50:01;-4.60;99.90
41262;DHT22;29629;52.532;13.352;2022-12-18T02:52:33;-4.50;99.90
41262;DHT22;29629;52.532;13.352;2022-12-18T02:55:13;-4.60;99.90
41262;DHT22;29629;52.532;13.352;2022-12-18T02:57:48;-4.50;99.90
41262;DHT22;29629;52.532;13.352;2022-12-18T03:00:19;-4.50;99.90
41262;DHT22;29629;52.532;13.352;2022-12-18T03:02:48;-4.40;99.90
41262;DHT22;29629;52.532;13.352;2022-12-18T03:05:21;-4.40;99.90
41262;DHT22;29629;52.532;13.352;2022-12-18T03:07:53;-4.40;99.90
41262;DHT22;29629;52.532;13.352;2022-12-18T03:10:26;-4.50;99.90
41262;DHT22;29629;52.532;13.352;2022-12-18T03:13:01;-4.50;99.90
41262;DHT22;29629;52.532;13.352;2022-12-18T03:15:31;-4.60;99.90
41262;DHT22;29629;52.532;13.352;2022-12-18T03:18:04;-4.60;99.90
41262;DHT22;29629;52.532;13.352;2022-12-18T03:20:34;-4.70;99.90
41262;DHT22;29629;52.532;13.352;2022-12-18T03:23:06;-4.60;99.90
41262;DHT22;29629;52.532;13.352;2022-12-18T03:25:37;-4.50;99.90
41262;DHT22;29629;52.532;13.352;2022-12-18T03:28:12;-4.50;99.90
41262;DHT22;29629;52.532;13.352;2022-12-18T03:30:41;-4.80;99.90
41262;DHT22;29629;52.532;13.352;2022-12-18T03:33:13;-4.80;99.90
41262;DHT22;29629;52.532;13.352;2022-12-18T03:35:43;-4.80;99.90
41262;DHT22;29629;52.532;13.352;2022-12-18T03:38:10;-4.70;99.90
41262;DHT22;29629;52.532;13.352;2022-12-18T03:40:45;-4.50;99.90
41262;DHT22;29629;52.532;13.352;2022-12-18T03:43:23;-4.60;99.90
41262;DHT22;29629;52.532;13.352;2022-12-18T03:45:56;-4.60;99.90
41262;DHT22;29629;52.532;13.352;2022-12-18T03:48:28;-4.60;99.90
41262;DHT22;29629;52.532;13.352;2022-12-18T03:50:59;-4.80;99.90
41262;DHT22;29629;52.532;13.352;2022-12-18T03:53:33;-4.70;99.90
41262;DHT22;29629;52.532;13.352;2022-12-18T03:56:02;-4.60;99.90
41262;DHT22;29629;52.532;13.352;2022-12-18T03:58:33;-4.70;99.90
41262;DHT22;29629;52.532;13.352;2022-12-18T04:01:03;-4.50;99.90
41262;DHT22;29629;52.532;13.352;2022-12-18T04:03:32;-4.60;99.90
41262;DHT22;29629;52.532;13.352;2022-12-18T04:06:00;-4.80;99.90
41262;DHT22;29629;52.532;13.352;2022-12-18T04:08:29;-4.60;99.90
41262;DHT22;29629;52.532;13.352;2022-12-18T04:10:56;-4.70;99.90
41262;DHT22;29629;52.532;13.352;2022-12-18T04:13:24;-4.70;99.90
41262;DHT22;29629;52.532;13.352;2022-12-18T04:15:52;-4.80;99.90
41262;DHT22;29629;52.532;13.352;2022-12-18T04:18:19;-4.90;99.90
41262;DHT22;29629;52.532;13.352;2022-12-18T04:20:46;-4.90;99.90
41262;DHT22;29629;52.532;13.352;2022-12-18T04:23:13;-5.00;99.90
41262;DHT22;29629;52.532;13.352;2022-12-18T04:25:40;-5.10;99.90
41262;DHT22;29629;52.532;13.352;2022-12-18T04:28:07;-5.20;99.90
41262;DHT22;29629;52.532;13.352;2022-12-18T04:30:34;-5.30;99.90
41262;DHT22;29629;52.532;13.352;2022-12-18T04:33:02;-5.20;99.90
41262;DHT22;29629;52.532;13.352;2022-12-18T04:35:29;-5.10;99.90
41262;DHT22;29629;52.532;13.352;2022-12-18T04:37:56;-5.00;99.90
41262;DHT22;29629;52.532;13.352;2022-12-18T04:40:23;-5.10;99.90
41262;DHT22;29629;52.532;13.352;2022-12-18T04:42:50;-5.00;99.90
41262;DHT22;29629;52.532;13.352;2022-12-18T04:45:17;-5.00;99.90
41262;DHT22;29629;52.532;13.352;2022-12-18T04:47:44;-5.10;99.90
41262;DHT22;29629;52.532;13.352;2022-12-18T04:50:12;-5.00;99.90
41262;DHT22;29629;52.532;13.352;2022-12-18T04:52:39;-5.00;99.90
41262;DHT22;29629;52.532;13.352;2022-12-18T04:55:07;-4.90;99.90
41262;DHT22;29629;52.532;13.352;2022-12-18T04:57:34;-5.00;99.90
41262;DHT22;29629;52.532;13.352;2022-12-18T05:00:01;-5.00;99.90
41262;DHT22;29629;52.532;13.352;2022-12-18T05:02:28;-5.00;99.90
41262;DHT22;29629;52.532;13.352;2022-12-18T05:04:55;-5.00;99.90
41262;DHT22;29629;52.532;13.352;2022-12-18T05:07:23;-5.20;99.90
41262;DHT22;29629;52.532;13.352;2022-12-18T05:09:50;-5.20;99.90
41262;DHT22;29629;52.532;13.352;2022-12-18T05:12:17;-5.30;99.90
41262;DHT22;29629;52.532;13.352;2022-12-18T05:14:44;-5.10;99.90
41262;DHT22;29629;52.532;13.352;2022-12-18T05:17:11;-5.10;99.90
41262;DHT22;29629;52.532;13.352;2022-12-18T05:19:38;-5.00;99.90
41262;DHT22;29629;52.532;13.352;2022-12-18T05:22:08;-5.00;99.90
41262;DHT22;29629;52.532;13.352;2022-12-18T05:24:36;-5.00;99.90
41262;DHT22;29629;52.532;13.352;2022-12-18T05:27:03;-5.00;99.90
41262;DHT22;29629;52.532;13.352;2022-12-18T05:29:30;-4.90;99.90
41262;DHT22;29629;52.532;13.352;2022-12-18T05:31:57;-4.80;99.90
41262;DHT22;29629;52.532;13.352;2022-12-18T05:34:24;-5.00;99.90
41262;DHT22;29629;52.532;13.352;2022-12-18T05:36:51;-4.90;99.90
41262;DHT22;29629;52.532;13.352;2022-12-18T05:39:18;-5.00;99.90
41262;DHT22;29629;52.532;13.352;2022-12-18T05:41:46;-5.00;99.90
41262;DHT22;29629;52.532;13.352;2022-12-18T05:44:13;-4.80;99.90
41262;DHT22;29629;52.532;13.352;2022-12-18T05:46:40;-4.90;99.90
41262;DHT22;29629;52.532;13.352;2022-12-18T05:49:07;-4.80;99.90
41262;DHT22;29629;52.532;13.352;2022-12-18T05:51:33;-4.80;99.90
41262;DHT22;29629;52.532;13.352;2022-12-18T05:54:00;-4.80;99.90
41262;DHT22;29629;52.532;13.352;2022-12-18T05:56:27;-4.90;99.90
41262;DHT22;29629;52.532;13.352;2022-12-18T05:58:55;-4.80;99.90
41262;DHT22;29629;52.532;13.352;2022-12-18T06:01:24;-4.80;99.90
41262;DHT22;29629;52.532;13.352;2022-12-18T06:03:51;-4.80;99.90
41262;DHT22;29629;52.532;13.352;2022-12-18T06:06:20;-4.80;99.90
41262;DHT22;29629;52.532;13.352;2022-12-18T06:08:48;-4.80;99.90
41262;DHT22;29629;52.532;13.352;2022-12-18T06:11:17;-4.80;99.90
41262;DHT22;29629;52.532;13.352;2022-12-18T06:13:45;-4.80;99.90
41262;DHT22;29629;52.532;13.352;2022-12-18T06:16:14;-4.80;99.90
41262;DHT22;29629;52.532;13.352;2022-12-18T06:18:41;-4.70;99.90
41262;DHT22;29629;52.532;13.352;2022-12-18T06:21:08;-4.70;99.90
41262;DHT22;29629;52.532;13.352;2022-12-18T06:23:35;-4.80;99.90
41262;DHT22;29629;52.532;13.352;2022-12-18T06:26:06;-4.70;99.90
41262;DHT22;29629;52.532;13.352;2022-12-18T06:28:34;-4.70;99.90
41262;DHT22;29629;52.532;13.352;2022-12-18T06:31:02;-4.70;99.90
41262;DHT22;29629;52.532;13.352;2022-12-18T06:33:30;-4.80;99.90
41262;DHT22;29629;52.532;13.352;2022-12-18T06:35:59;-4.80;99.90
41262;DHT22;29629;52.532;13.352;2022-12-18T06:38:27;-4.80;99.90
41262;DHT22;29629;52.532;13.352;2022-12-18T06:40:54;-4.80;99.90
41262;DHT22;29629;52.532;13.352;2022-12-18T06:43:20;-4.80;99.90
41262;DHT22;29629;52.532;13.352;2022-12-18T06:45:47;-4.80;99.90
41262;DHT22;29629;52.532;13.352;2022-12-18T06:48:18;-4.80;99.90
41262;DHT22;29629;52.532;13.352;2022-12-18T06:50:47;-4.80;99.90
41262;DHT22;29629;52.532;13.352;2022-12-18T06:53:13;-4.80;99.90
41262;DHT22;29629;52.532;13.352;2022-12-18T06:55:40;-4.90;99.90
41262;DHT22;29629;52.532;13.352;2022-12-18T06:58:07;-4.90;99.90
41262;DHT22;29629;52.532;13.352;2022-12-18T07:00:34;-4.90;99.90
41262;DHT22;29629;52.532;13.352;2022-12-18T07:03:01;-4.70;99.90
41262;DHT22;29629;52.532;13.352;2022-12-18T07:05:28;-4.70;99.90
41262;DHT22;29629;52.532;13.352;2022-12-18T07:07:57;-4.70;99.90
41262;DHT22;29629;52.532;13.352;2022-12-18T07:10:24;-4.80;99.90
41262;DHT22;29629;52.532;13.352;2022-12-18T07:12:51;-4.90;99.90
41262;DHT22;29629;52.532;13.352;2022-12-18T07:15:18;-4.90;99.90
41262;DHT22;29629;52.532;13.352;2022-12-18T07:17:44;-4.90;99.90
41262;DHT22;29629;52.532;13.352;2022-12-18T07:20:11;-4.90;99.90
41262;DHT22;29629;52.532;13.352;2022-12-18T07:22:38;-4.80;99.90
41262;DHT22;29629;52.532;13.352;2022-12-18T07:25:07;-4.80;99.90
41262;DHT22;29629;52.532;13.352;2022-12-18T07:27:34;-4.80;99.90
41262;DHT22;29629;52.532;13.352;2022-12-18T07:30:01;-4.70;99.90
41262;DHT22;29629;52.532;13.352;2022-12-18T07:32:28;-4.80;99.90
41262;DHT22;29629;52.532;13.352;2022-12-18T07:34:56;-4.80;99.90
41262;DHT22;29629;52.532;13.352;2022-12-18T07:37:23;-4.90;99.90
41262;DHT22;29629;52.532;13.352;2022-12-18T07:39:50;-4.90;99.90
41262;DHT22;29629;52.532;13.352;2022-12-18T07:42:18;-4.90;99.90
41262;DHT22;29629;52.532;13.352;2022-12-18T07:44:57;-4.70;99.90
41262;DHT22;29629;52.532;13.352;2022-12-18T07:47:24;-4.60;99.90
41262;DHT22;29629;52.532;13.352;2022-12-18T07:49:51;-4.60;99.90
41262;DHT22;29629;52.532;13.352;2022-12-18T07:52:18;-4.70;99.90
41262;DHT22;29629;52.532;13.352;2022-12-18T07:54:45;-4.70;99.90
41262;DHT22;29629;52.532;13.352;2022-12-18T07:57:14;-4.70;99.90
41262;DHT22;29629;52.532;13.352;2022-12-18T07:59:42;-4.70;99.90
41262;DHT22;29629;52.532;13.352;2022-12-18T08:02:09;-4.60;99.90
41262;DHT22;29629;52.532;13.352;2022-12-18T08:04:36;-4.40;99.90
41262;DHT22;29629;52.532;13.352;2022-12-18T08:07:03;-4.50;99.90
41262;DHT22;29629;52.532;13.352;2022-12-18T08:09:30;-4.50;99.90
41262;DHT22;29629;52.532;13.352;2022-12-18T08:11:57;-4.50;99.90
41262;DHT22;29629;52.532;13.352;2022-12-18T08:14:24;-4.50;99.90
41262;DHT22;29629;52.532;13.352;2022-12-18T08:16:52;-4.50;99.90
41262;DHT22;29629;52.532;13.352;2022-12-18T08:19:19;-4.40;99.90
41262;DHT22;29629;52.532;13.352;2022-12-18T08:21:46;-4.40;99.90
41262;DHT22;29629;52.532;13.352;2022-12-18T08:24:13;-4.50;99.90
41262;DHT22;29629;52.532;13.352;2022-12-18T08:26:40;-4.50;99.90
41262;DHT22;29629;52.532;13.352;2022-12-18T08:29:08;-4.40;99.90
41262;DHT22;29629;52.532;13.352;2022-12-18T08:31:35;-4.40;99.90
41262;DHT22;29629;52.532;13.352;2022-12-18T08:34:03;-4.40;99.90
41262;DHT22;29629;52.532;13.352;2022-12-18T08:36:30;-4.40;99.90
41262;DHT22;29629;52.532;13.352;2022-12-18T08:38:57;-4.40;99.90
41262;DHT22;29629;52.532;13.352;2022-12-18T08:41:24;-4.40;99.90
41262;DHT22;29629;52.532;13.352;2022-12-18T08:43:51;-4.30;99.90
41262;DHT22;29629;52.532;13.352;2022-12-18T08:46:37;-4.30;99.90
41262;DHT22;29629;52.532;13.352;2022-12-18T08:49:06;-4.30;99.90
41262;DHT22;29629;52.532;13.352;2022-12-18T08:51:33;-4.30;99.90
41262;DHT22;29629;52.532;13.352;2022-12-18T08:54:01;-4.30;99.90
41262;DHT22;29629;52.532;13.352;2022-12-18T08:56:29;-4.30;99.90
41262;DHT22;29629;52.532;13.352;2022-12-18T08:58:57;-4.40;99.90
41262;DHT22;29629;52.532;13.352;2022-12-18T09:01:24;-4.40;99.90
41262;DHT22;29629;52.532;13.352;2022-12-18T09:03:51;-4.30;99.90
41262;DHT22;29629;52.532;13.352;2022-12-18T09:06:20;-4.20;99.90
41262;DHT22;29629;52.532;13.352;2022-12-18T09:08:48;-4.20;99.90
41262;DHT22;29629;52.532;13.352;2022-12-18T09:11:19;-4.10;99.90
41262;DHT22;29629;52.532;13.352;2022-12-18T09:13:47;-4.00;99.90
41262;DHT22;29629;52.532;13.352;2022-12-18T09:16:14;-4.00;99.90
41262;DHT22;29629;52.532;13.352;2022-12-18T09:18:41;-4.00;99.90
41262;DHT22;29629;52.532;13.352;2022-12-18T09:21:10;-4.00;99.90
41262;DHT22;29629;52.532;13.352;2022-12-18T09:23:39;-4.00;99.90
41262;DHT22;29629;52.532;13.352;2022-12-18T09:26:06;-4.10;99.90
41262;DHT22;29629;52.532;13.352;2022-12-18T09:28:33;-4.00;99.90
41262;DHT22;29629;52.532;13.352;2022-12-18T09:31:04;-4.10;99.90
41262;DHT22;29629;52.532;13.352;2022-12-18T09:33:32;-4.00;99.90
41262;DHT22;29629;52.532;13.352;2022-12-18T09:36:02;-4.00;99.90
41262;DHT22;29629;52.532;13.352;2022-12-18T09:38:29;-4.00;99.90
41262;DHT22;29629;52.532;13.352;2022-12-18T09:41:00;-4.00;99.90
41262;DHT22;29629;52.532;13.352;2022-12-18T09:43:33;-4.00;99.90
41262;DHT22;29629;52.532;13.352;2022-12-18T09:46:05;-3.90;99.90
41262;DHT22;29629;52.532;13.352;2022-12-18T09:48:36;-3.90;99.90
41262;DHT22;29629;52.532;13.352;2022-12-18T09:51:11;-3.80;99.90
41262;DHT22;29629;52.532;13.352;2022-12-18T09:53:39;-3.80;99.90
41262;DHT22;29629;52.532;13.352;2022-12-18T09:56:14;-3.90;99.90
41262;DHT22;29629;52.532;13.352;2022-12-18T09:58:47;-4.00;99.90
41262;DHT22;29629;52.532;13.352;2022-12-18T10:01:20;-4.00;99.90
41262;DHT22;29629;52.532;13.352;2022-12-18T10:03:48;-3.90;99.90
41262;DHT22;29629;52.532;13.352;2022-12-18T10:06:20;-3.80;99.90
41262;DHT22;29629;52.532;13.352;2022-12-18T10:08:53;-3.70;99.90
41262;DHT22;29629;52.532;13.352;2022-12-18T10:11:28;-3.60;99.90
41262;DHT22;29629;52.532;13.352;2022-12-18T10:14:06;-3.70;99.90
41262;DHT22;29629;52.532;13.352;2022-12-18T10:16:43;-3.70;99.90
41262;DHT22;29629;52.532;13.352;2022-12-18T10:19:37;-3.70;99.90
41262;DHT22;29629;52.532;13.352;2022-12-18T10:22:15;-3.60;99.90
41262;DHT22;29629;52.532;13.352;2022-12-18T10:24:47;-3.60;99.90
41262;DHT22;29629;52.532;13.352;2022-12-18T10:27:22;-3.50;99.90
41262;DHT22;29629;52.532;13.352;2022-12-18T10:29:49;-3.50;99.90
41262;DHT22;29629;52.532;13.352;2022-12-18T10:32:19;-3.40;99.90
41262;DHT22;29629;52.532;13.352;2022-12-18T10:34:47;-3.40;99.90
41262;DHT22;29629;52.532;13.352;2022-12-18T10:37:17;-3.40;99.90
41262;DHT22;29629;52.532;13.352;2022-12-18T10:39:45;-3.40;99.90
41262;DHT22;29629;52.532;13.352;2022-12-18T10:42:18;-3.40;99.90
41262;DHT22;29629;52.532;13.352;2022-12-18T10:44:45;-3.40;99.90
41262;DHT22;29629;52.532;13.352;2022-12-18T10:47:14;-3.40;99.90
41262;DHT22;29629;52.532;13.352;2022-12-18T10:49:47;-3.20;99.90
41262;DHT22;29629;52.532;13.352;2022-12-18T10:52:18;-3.10;99.90
41262;DHT22;29629;52.532;13.352;2022-12-18T10:54:49;-3.20;99.90
41262;DHT22;29629;52.532;13.352;2022-12-18T10:57:31;-3.10;99.90
41262;DHT22;29629;52.532;13.352;2022-12-18T11:00:03;-3.00;99.90
41262;DHT22;29629;52.532;13.352;2022-12-18T11:02:39;-3.00;99.90
41262;DHT22;29629;52.532;13.352;2022-12-18T11:05:25;-3.00;99.90
41262;DHT22;29629;52.532;13.352;2022-12-18T11:07:52;-2.90;99.90
41262;DHT22;29629;52.532;13.352;2022-12-18T11:10:21;-3.00;99.90
41262;DHT22;29629;52.532;13.352;2022-12-18T11:12:50;-2.90;99.90
41262;DHT22;29629;52.532;13.352;2022-12-18T11:15:19;-2.90;99.90
41262;DHT22;29629;52.532;13.352;2022-12-18T11:17:48;-2.90;99.90
41262;DHT22;29629;52.532;13.352;2022-12-18T11:20:24;-3.10;99.90
41262;DHT22;29629;52.532;13.352;2022-12-18T11:22:56;-3.00;99.90
41262;DHT22;29629;52.532;13.352;2022-12-18T11:25:24;-3.00;99.90
41262;DHT22;29629;52.532;13.352;2022-12-18T11:27:54;-3.00;99.90
41262;DHT22;29629;52.532;13.352;2022-12-18T11:30:24;-3.00;99.90
41262;DHT22;29629;52.532;13.352;2022-12-18T11:32:53;-3.10;99.90
41262;DHT22;29629;52.532;13.352;2022-12-18T11:35:27;-3.00;99.90
41262;DHT22;29629;52.532;13.352;2022-12-18T11:38:02;-3.00;99.90
41262;DHT22;29629;52.532;13.352;2022-12-18T11:40:35;-3.00;99.90
41262;DHT22;29629;52.532;13.352;2022-12-18T11:43:08;-2.90;99.90
41262;DHT22;29629;52.532;13.352;2022-12-18T11:45:43;-2.90;99.90
41262;DHT22;29629;52.532;13.352;2022-12-18T11:48:17;-2.90;99.90
41262;DHT22;29629;52.532;13.352;2022-12-18T11:50:49;-2.90;99.90
41262;DHT22;29629;52.532;13.352;2022-12-18T11:53:17;-3.00;99.90
41262;DHT22;29629;52.532;13.352;2022-12-18T11:55:50;-2.90;99.90
41262;DHT22;29629;52.532;13.352;2022-12-18T11:58:42;-2.90;99.90
41262;DHT22;29629;52.532;13.352;2022-12-18T12:01:19;-2.90;99.90
41262;DHT22;29629;52.532;13.352;2022-12-18T12:04:20;-3.00;99.90
41262;DHT22;29629;52.532;13.352;2022-12-18T12:07:00;-3.00;99.90
41262;DHT22;29629;52.532;13.352;2022-12-18T12:09:37;-3.00;99.90
41262;DHT22;29629;52.532;13.352;2022-12-18T12:12:22;-3.00;99.90
41262;DHT22;29629;52.532;13.352;2022-12-18T12:15:00;-3.00;99.90
41262;DHT22;29629;52.532;13.352;2022-12-18T12:17:36;-2.80;99.90
41262;DHT22;29629;52.532;13.352;2022-12-18T12:20:10;-2.80;99.90
41262;DHT22;29629;52.532;13.352;2022-12-18T12:22:46;-2.80;99.90
41262;DHT22;29629;52.532;13.352;2022-12-18T12:25:19;-2.80;99.90
41262;DHT22;29629;52.532;13.352;2022-12-18T12:28:01;-2.70;99.90
41262;DHT22;29629;52.532;13.352;2022-12-18T12:30:38;-2.80;99.90
41262;DHT22;29629;52.532;13.352;2022-12-18T12:33:17;-2.80;99.90
41262;DHT22;29629;52.532;13.352;2022-12-18T12:35:52;-2.80;99.90
41262;DHT22;29629;52.532;13.352;2022-12-18T12:38:25;-2.80;99.90
41262;DHT22;29629;52.532;13.352;2022-12-18T12:40:56;-2.80;99.90
41262;DHT22;29629;52.532;13.352;2022-12-18T12:43:31;-2.80;99.90
41262;DHT22;29629;52.532;13.352;2022-12-18T12:46:06;-2.80;99.90
41262;DHT22;29629;52.532;13.352;2022-12-18T12:48:37;-2.60;99.90
41262;DHT22;29629;52.532;13.352;2022-12-18T12:51:12;-2.80;99.90
41262;DHT22;29629;52.532;13.352;2022-12-18T12:53:40;-2.60;99.90
41262;DHT22;29629;52.532;13.352;2022-12-18T12:56:10;-2.70;99.90
41262;DHT22;29629;52.532;13.352;2022-12-18T12:58:45;-2.70;99.90
41262;DHT22;29629;52.532;13.352;2022-12-18T13:01:23;-2.80;99.90
41262;DHT22;29629;52.532;13.352;2022-12-18T13:03:59;-2.80;99.90
41262;DHT22;29629;52.532;13.352;2022-12-18T13:06:37;-2.70;99.90
41262;DHT22;29629;52.532;13.352;2022-12-18T13:09:06;-2.80;99.90
41262;DHT22;29629;52.532;13.352;2022-12-18T13:11:38;-2.80;99.90
41262;DHT22;29629;52.532;13.352;2022-12-18T13:14:27;-2.80;99.90
41262;DHT22;29629;52.532;13.352;2022-12-18T13:17:21;-2.70;99.90
41262;DHT22;29629;52.532;13.352;2022-12-18T13:19:51;-2.70;99.90
41262;DHT22;29629;52.532;13.352;2022-12-18T13:22:23;-2.70;99.90
41262;DHT22;29629;52.532;13.352;2022-12-18T13:24:51;-2.70;99.90
41262;DHT22;29629;52.532;13.352;2022-12-18T13:27:53;-2.70;99.90
41262;DHT22;29629;52.532;13.352;2022-12-18T13:30:43;-2.70;99.90
41262;DHT22;29629;52.532;13.352;2022-12-18T13:36:25;-2.70;99.90
41262;DHT22;29629;52.532;13.352;2022-12-18T13:39:11;-2.60;99.90
41262;DHT22;29629;52.532;13.352;2022-12-18T13:41:48;-2.60;99.90
41262;DHT22;29629;52.532;13.352;2022-12-18T13:44:25;-2.60;99.90
41262;DHT22;29629;52.532;13.352;2022-12-18T13:46:54;-2.70;99.90
41262;DHT22;29629;52.532;13.352;2022-12-18T13:49:23;-2.60;99.90
41262;DHT22;29629;52.532;13.352;2022-12-18T13:51:54;-2.70;99.90
41262;DHT22;29629;52.532;13.352;2022-12-18T13:54:27;-2.80;99.90
41262;DHT22;29629;52.532;13.352;2022-12-18T13:56:55;-2.70;99.90
41262;DHT22;29629;52.532;13.352;2022-12-18T13:59:23;-2.70;99.90
41262;DHT22;29629;52.532;13.352;2022-12-18T14:01:53;-2.70;99.90
41262;DHT22;29629;52.532;13.352;2022-12-18T14:04:24;-2.70;99.90
41262;DHT22;29629;52.532;13.352;2022-12-18T14:06:56;-2.70;99.90
41262;DHT22;29629;52.532;13.352;2022-12-18T14:09:27;-2.70;99.90
41262;DHT22;29629;52.532;13.352;2022-12-18T14:11:56;-2.70;99.90
41262;DHT22;29629;52.532;13.352;2022-12-18T14:14:37;-2.70;99.90
41262;DHT22;29629;52.532;13.352;2022-12-18T14:17:09;-2.80;99.90
41262;DHT22;29629;52.532;13.352;2022-12-18T14:19:37;-2.80;99.90
41262;DHT22;29629;52.532;13.352;2022-12-18T14:22:14;-2.80;99.90
41262;DHT22;29629;52.532;13.352;2022-12-18T14:24:41;-2.90;99.90
41262;DHT22;29629;52.532;13.352;2022-12-18T14:27:19;-2.90;99.90
41262;DHT22;29629;52.532;13.352;2022-12-18T14:29:46;-3.00;99.90
41262;DHT22;29629;52.532;13.352;2022-12-18T14:32:15;-3.00;99.90
41262;DHT22;29629;52.532;13.352;2022-12-18T14:34:42;-3.00;99.90
41262;DHT22;29629;52.532;13.352;2022-12-18T14:37:13;-3.00;99.90
41262;DHT22;29629;52.532;13.352;2022-12-18T14:39:40;-2.90;99.90
41262;DHT22;29629;52.532;13.352;2022-12-18T14:42:10;-2.90;99.90
41262;DHT22;29629;52.532;13.352;2022-12-18T14:44:38;-2.90;99.90
41262;DHT22;29629;52.532;13.352;2022-12-18T14:47:05;-2.90;99.90
41262;DHT22;29629;52.532;13.352;2022-12-18T14:49:33;-2.70;99.90
41262;DHT22;29629;52.532;13.352;2022-12-18T14:52:03;-2.80;99.90
41262;DHT22;29629;52.532;13.352;2022-12-18T14:54:34;-2.80;99.90
41262;DHT22;29629;52.532;13.352;2022-12-18T14:57:05;-2.80;99.90
41262;DHT22;29629;52.532;13.352;2022-12-18T14:59:32;-2.80;99.90
41262;DHT22;29629;52.532;13.352;2022-12-18T15:02:03;-2.80;99.90
41262;DHT22;29629;52.532;13.352;2022-12-18T15:04:33;-2.70;99.90
41262;DHT22;29629;52.532;13.352;2022-12-18T15:07:08;-2.70;99.90
41262;DHT22;29629;52.532;13.352;2022-12-18T15:09:38;-2.80;99.90
41262;DHT22;29629;52.532;13.352;2022-12-18T15:12:15;-3.00;99.90
41262;DHT22;29629;52.532;13.352;2022-12-18T15:14:44;-3.10;99.90
41262;DHT22;29629;52.532;13.352;2022-12-18T15:17:17;-3.10;99.90
41262;DHT22;29629;52.532;13.352;2022-12-18T15:19:46;-3.20;99.90
41262;DHT22;29629;52.532;13.352;2022-12-18T15:22:22;-3.20;99.90
41262;DHT22;29629;52.532;13.352;2022-12-18T15:24:53;-3.20;99.90
41262;DHT22;29629;52.532;13.352;2022-12-18T15:27:29;-3.20;99.90
41262;DHT22;29629;52.532;13.352;2022-12-18T15:30:18;-3.20;99.90
41262;DHT22;29629;52.532;13.352;2022-12-18T15:32:45;-3.10;99.90
41262;DHT22;29629;52.532;13.352;2022-12-18T15:35:21;-3.20;99.90
41262;DHT22;29629;52.532;13.352;2022-12-18T15:37:48;-3.20;99.90
41262;DHT22;29629;52.532;13.352;2022-12-18T15:40:19;-3.20;99.90
41262;DHT22;29629;52.532;13.352;2022-12-18T15:42:47;-3.10;99.90